createdAt,value
2022-09-25T00:00:56.472Z,11.08
2022-09-25T00:03:25.237Z,11.07
2022-09-25T00:05:52.382Z,11.13
2022-09-25T00:08:19.612Z,11.02
2022-09-25T00:10:49.861Z,10.88
2022-09-25T00:13:19.025Z,10.74
2022-09-25T00:15:51.993Z,10.56
2022-09-25T00:18:39.408Z,10.32
2022-09-25T00:21:06.879Z,10.20
2022-09-25T00:23:34.370Z,10.15
2022-09-25T00:26:01.977Z,10.14
2022-09-25T00:28:29.522Z,10.17
2022-09-25T00:30:56.739Z,10.23
2022-09-25T00:33:24.058Z,10.22
2022-09-25T00:35:50.672Z,10.14
2022-09-25T00:38:17.027Z,10.10
2022-09-25T00:40:43.455Z,9.99
2022-09-25T00:43:15.234Z,9.93
2022-09-25T00:45:43.976Z,9.86
2022-09-25T00:48:15.377Z,9.75
2022-09-25T00:50:41.664Z,9.70
2022-09-25T00:53:14.202Z,9.60
2022-09-25T00:55:44.172Z,9.70
2022-09-25T00:58:13.686Z,9.74
2022-09-25T01:00:41.423Z,9.91
2022-09-25T01:03:08.706Z,9.97
2022-09-25T01:05:38.732Z,10.03
2022-09-25T01:08:10.887Z,10.14
2022-09-25T01:10:37.312Z,10.06
2022-09-25T01:13:04.844Z,10.06
2022-09-25T01:15:44.311Z,10.02
2022-09-25T01:18:16.380Z,9.99
2022-09-25T01:21:04.250Z,9.93
2022-09-25T01:24:02.679Z,9.79
2022-09-25T01:27:07.184Z,9.71
2022-09-25T01:29:50.149Z,9.70
2022-09-25T01:32:27.889Z,9.67
2022-09-25T01:35:00.382Z,9.58
2022-09-25T01:37:36.621Z,9.44
2022-09-25T01:40:16.575Z,9.37
2022-09-25T01:42:57.566Z,9.30
2022-09-25T01:45:30.914Z,9.36
2022-09-25T01:48:00.554Z,9.35
2022-09-25T01:50:35.233Z,9.30
2022-09-25T01:53:08.035Z,9.35
2022-09-25T01:55:41.045Z,9.39
2022-09-25T01:58:20.730Z,9.41
2022-09-25T02:00:55.426Z,9.48
2022-09-25T02:03:31.034Z,9.53
2022-09-25T02:06:02.441Z,9.43
2022-09-25T02:08:35.777Z,9.44
2022-09-25T02:11:05.624Z,9.30
2022-09-25T02:13:50.106Z,9.23
2022-09-25T02:16:21.805Z,9.12
2022-09-25T02:19:08.529Z,9.06
2022-09-25T02:21:59.127Z,9.06
2022-09-25T02:24:39.548Z,8.94
2022-09-25T02:27:06.135Z,8.86
2022-09-25T02:29:32.615Z,8.81
2022-09-25T02:32:09.348Z,8.70
2022-09-25T02:34:36.813Z,8.76
2022-09-25T02:37:03.807Z,8.79
2022-09-25T02:39:31.439Z,8.85
2022-09-25T02:42:15.279Z,8.91
2022-09-25T02:44:50.598Z,8.94
2022-09-25T02:47:34.770Z,9.09
2022-09-25T02:50:22.061Z,9.22
2022-09-25T02:53:00.652Z,9.15
2022-09-25T02:55:40.199Z,9.18
2022-09-25T02:58:14.470Z,9.08
2022-09-25T03:00:43.654Z,9.04
2022-09-25T03:03:14.682Z,8.89
2022-09-25T03:05:41.676Z,8.86
2022-09-25T03:08:27.560Z,8.81
2022-09-25T03:10:54.199Z,8.71
2022-09-25T03:13:26.436Z,8.70
2022-09-25T03:16:15.893Z,8.68
2022-09-25T03:18:42.288Z,8.55
2022-09-25T03:21:08.956Z,8.69
2022-09-25T03:23:35.293Z,8.71
2022-09-25T03:26:01.946Z,8.75
2022-09-25T03:28:28.481Z,8.84
2022-09-25T03:30:59.788Z,8.86
2022-09-25T03:33:28.767Z,8.93
2022-09-25T03:36:11.541Z,8.92
2022-09-25T03:38:38.705Z,8.98
2022-09-25T03:41:08.694Z,9.03
2022-09-25T03:43:39.849Z,9.13
2022-09-25T03:46:09.418Z,9.19
2022-09-25T03:48:36.415Z,9.21
2022-09-25T03:51:03.947Z,9.13
2022-09-25T03:53:33.805Z,9.10
2022-09-25T03:56:06.247Z,9.23
2022-09-25T03:58:33.166Z,9.22
2022-09-25T04:00:59.824Z,9.27
2022-09-25T04:03:28.518Z,9.35
2022-09-25T04:06:08.778Z,9.41
2022-09-25T04:08:36.339Z,9.39
2022-09-25T04:11:03.614Z,9.35
2022-09-25T04:13:32.800Z,9.44
2022-09-25T04:16:01.274Z,9.47
2022-09-25T04:18:31.767Z,9.39
2022-09-25T04:20:59.721Z,9.46
2022-09-25T04:23:26.332Z,9.55
2022-09-25T04:25:53.179Z,9.48
2022-09-25T04:28:20.085Z,9.48
2022-09-25T04:30:46.432Z,9.40
2022-09-25T04:33:31.398Z,9.48
2022-09-25T04:35:57.779Z,9.47
2022-09-25T04:38:24.228Z,9.44
2022-09-25T04:40:51.144Z,9.43
2022-09-25T04:43:18.322Z,9.45
2022-09-25T04:45:47.215Z,9.40
2022-09-25T04:48:13.629Z,9.41
2022-09-25T04:50:39.986Z,9.31
2022-09-25T04:53:06.349Z,9.36
2022-09-25T04:55:32.729Z,9.35
2022-09-25T04:58:01.291Z,9.44
2022-09-25T05:00:30.716Z,9.46
2022-09-25T05:02:57.927Z,9.53
2022-09-25T05:05:30.655Z,9.55
2022-09-25T05:07:59.246Z,9.46
2022-09-25T05:10:28.377Z,9.53
2022-09-25T05:12:59.834Z,9.57
2022-09-25T05:15:28.688Z,9.57
2022-09-25T05:18:13.212Z,9.65
2022-09-25T05:20:39.547Z,9.60
2022-09-25T05:23:05.970Z,9.61
2022-09-25T05:25:32.821Z,9.64
2022-09-25T05:28:00.825Z,9.67
2022-09-25T05:30:30.338Z,9.71
2022-09-25T05:32:59.934Z,9.63
2022-09-25T05:35:29.333Z,9.67
2022-09-25T05:37:56.104Z,9.76
2022-09-25T05:40:23.913Z,9.66
2022-09-25T05:42:51.442Z,9.80
2022-09-25T05:45:19.803Z,9.88
2022-09-25T05:47:47.015Z,9.95
2022-09-25T05:50:16.390Z,9.93
2022-09-25T05:52:43.574Z,9.95
2022-09-25T05:55:10.669Z,10.07
2022-09-25T05:57:37.875Z,10.10
2022-09-25T06:00:06.366Z,10.19
2022-09-25T06:02:32.860Z,10.16
2022-09-25T06:04:59.267Z,10.26
2022-09-25T06:07:25.623Z,10.35
2022-09-25T06:09:52.225Z,10.40
2022-09-25T06:12:19.314Z,10.40
2022-09-25T06:14:45.728Z,10.54
2022-09-25T06:17:12.527Z,10.60
2022-09-25T06:19:39.080Z,10.52
2022-09-25T06:22:05.532Z,10.72
2022-09-25T06:24:31.910Z,10.63
2022-09-25T06:26:58.278Z,10.66
2022-09-25T06:29:24.686Z,10.84
2022-09-25T06:31:52.310Z,10.67
2022-09-25T06:34:19.179Z,10.92
2022-09-25T06:36:45.692Z,11.12
2022-09-25T06:39:12.049Z,10.93
2022-09-25T06:41:38.464Z,10.98
2022-09-25T06:44:05.260Z,11.11
2022-09-25T06:46:31.704Z,11.09
2022-09-25T06:48:58.088Z,11.09
2022-09-25T06:51:27.652Z,11.15
2022-09-25T06:53:54.528Z,11.42
2022-09-25T06:56:21.410Z,11.41
2022-09-25T06:58:48.117Z,11.58
2022-09-25T07:01:14.653Z,12.00
2022-09-25T07:03:48.569Z,12.21
2022-09-25T07:06:27.205Z,12.43
2022-09-25T07:08:53.632Z,12.56
2022-09-25T07:11:22.854Z,12.86
2022-09-25T07:13:55.286Z,13.33
2022-09-25T07:16:24.887Z,13.12
2022-09-25T07:19:04.013Z,13.48
2022-09-25T07:21:32.218Z,14.47
2022-09-25T07:23:58.945Z,14.92
2022-09-25T07:26:28.171Z,14.35
2022-09-25T07:28:56.279Z,14.61
2022-09-25T07:31:26.090Z,15.11
2022-09-25T07:33:53.021Z,15.88
2022-09-25T07:36:20.678Z,15.30
2022-09-25T07:38:53.747Z,15.79
2022-09-25T07:41:22.844Z,15.82
2022-09-25T07:44:40.022Z,15.38
2022-09-25T07:46:44.410Z,14.89
2022-09-25T07:49:11.083Z,15.11
2022-09-25T07:51:37.515Z,15.51
2022-09-25T07:54:04.060Z,15.42
2022-09-25T07:56:30.520Z,14.49
2022-09-25T07:58:56.861Z,14.87
2022-09-25T08:01:23.333Z,14.88
2022-09-25T08:03:49.817Z,15.25
2022-09-25T08:06:16.155Z,15.22
2022-09-25T08:08:43.482Z,15.24
2022-09-25T08:11:15.343Z,15.40
2022-09-25T08:13:42.560Z,15.22
2022-09-25T08:16:19.908Z,14.92
2022-09-25T08:18:47.298Z,15.01
2022-09-25T08:21:15.995Z,15.08
2022-09-25T08:23:47.674Z,14.92
2022-09-25T08:26:14.698Z,15.06
2022-09-25T08:28:41.092Z,15.02
2022-09-25T08:31:08.790Z,14.82
2022-09-25T08:33:35.998Z,15.02
2022-09-25T08:36:05.020Z,15.08
2022-09-25T08:38:34.942Z,14.96
2022-09-25T08:41:25.179Z,15.12
2022-09-25T08:44:14.422Z,14.98
2022-09-25T08:47:05.542Z,15.26
2022-09-25T08:49:44.465Z,15.14
2022-09-25T08:52:21.232Z,15.41
2022-09-25T08:54:47.683Z,15.29
2022-09-25T08:57:37.201Z,15.41
2022-09-25T09:00:14.307Z,15.43
2022-09-25T09:02:45.339Z,15.73
2022-09-25T09:05:22.215Z,15.35
2022-09-25T09:08:09.975Z,15.78
2022-09-25T09:10:49.598Z,16.12
2022-09-25T09:13:24.761Z,16.09
2022-09-25T09:16:03.003Z,16.46
2022-09-25T09:18:31.557Z,16.27
2022-09-25T09:21:06.460Z,16.06
2022-09-25T09:23:36.259Z,16.96
2022-09-25T09:26:12.857Z,16.75
2022-09-25T09:28:57.466Z,18.64
2022-09-25T09:31:34.245Z,18.52
2022-09-25T09:34:24.086Z,17.77
2022-09-25T09:37:18.397Z,16.41
2022-09-25T09:40:20.063Z,17.34
2022-09-25T09:43:05.033Z,17.68
2022-09-25T09:45:50.509Z,18.04
2022-09-25T09:48:44.932Z,17.45
2022-09-25T09:51:19.188Z,17.10
2022-09-25T09:53:48.321Z,17.57
2022-09-25T09:56:31.211Z,17.13
2022-09-25T09:59:02.067Z,17.62
2022-09-25T10:01:41.262Z,17.88
2022-09-25T10:04:12.815Z,17.91
2022-09-25T10:06:46.635Z,17.63
2022-09-25T10:09:15.353Z,17.59
2022-09-25T10:11:44.024Z,17.36
2022-09-25T10:14:20.923Z,16.97
2022-09-25T10:16:50.717Z,17.26
2022-09-25T10:19:22.365Z,17.61
2022-09-25T10:21:57.187Z,17.62
2022-09-25T10:24:51.859Z,18.16
2022-09-25T10:27:49.488Z,18.19
2022-09-25T10:30:21.668Z,18.59
2022-09-25T10:32:58.325Z,19.20
2022-09-25T10:35:40.026Z,19.14
2022-09-25T10:38:18.990Z,17.60
2022-09-25T10:40:47.633Z,18.44
2022-09-25T10:43:24.168Z,19.01
2022-09-25T10:46:15.047Z,18.94
2022-09-25T10:49:01.103Z,18.94
2022-09-25T10:51:27.660Z,18.80
2022-09-25T10:54:09.581Z,19.19
2022-09-25T10:56:39.008Z,18.77
2022-09-25T10:59:23.182Z,19.03
2022-09-25T11:01:53.938Z,18.67
2022-09-25T11:04:26.032Z,18.43
2022-09-25T11:06:58.230Z,18.40
2022-09-25T11:09:29.980Z,18.05
2022-09-25T11:12:26.073Z,18.44
2022-09-25T11:15:02.320Z,18.04
2022-09-25T11:17:43.673Z,17.74
2022-09-25T11:20:19.196Z,17.67
2022-09-25T11:22:52.963Z,17.72
2022-09-25T11:25:42.405Z,17.24
2022-09-25T11:28:20.201Z,17.44
2022-09-25T11:30:55.924Z,16.98
2022-09-25T11:33:49.340Z,16.96
2022-09-25T11:36:36.829Z,16.86
2022-09-25T11:39:30.824Z,16.58
2022-09-25T11:42:05.117Z,16.37
2022-09-25T11:44:54.134Z,16.15
2022-09-25T11:47:28.114Z,16.14
2022-09-25T11:49:58.370Z,16.09
2022-09-25T11:52:37.373Z,16.10
2022-09-25T11:55:03.993Z,16.09
2022-09-25T11:57:45.352Z,15.96
2022-09-25T12:00:21.932Z,15.99
2022-09-25T12:03:16.418Z,15.74
2022-09-25T12:06:11.643Z,15.72
2022-09-25T12:08:52.952Z,15.64
2022-09-25T12:11:45.844Z,15.43
2022-09-25T12:14:34.942Z,15.36
2022-09-25T12:17:12.094Z,15.35
2022-09-25T12:19:38.437Z,15.39
2022-09-25T12:22:13.753Z,15.39
2022-09-25T12:25:02.656Z,15.43
2022-09-25T12:27:55.902Z,15.23
2022-09-25T12:30:25.502Z,15.41
2022-09-25T12:33:10.557Z,15.40
2022-09-25T12:35:51.792Z,15.18
2022-09-25T12:38:30.104Z,15.21
2022-09-25T12:41:42.193Z,15.19
2022-09-25T12:44:22.389Z,15.17
2022-09-25T12:47:01.830Z,15.19
2022-09-25T12:49:43.724Z,15.35
2022-09-25T12:52:20.297Z,15.40
2022-09-25T12:54:56.562Z,15.45
2022-09-25T12:57:37.107Z,15.63
2022-09-25T13:00:25.685Z,15.55
2022-09-25T13:03:10.442Z,15.66
2022-09-25T13:06:07.178Z,15.65
2022-09-25T13:08:56.073Z,15.94
2022-09-25T13:11:45.285Z,15.67
2022-09-25T13:14:30.197Z,15.98
2022-09-25T13:16:57.376Z,15.74
2022-09-25T13:19:26.701Z,15.50
2022-09-25T13:22:00.482Z,15.75
2022-09-25T13:24:28.244Z,15.57
2022-09-25T13:26:56.645Z,15.76
2022-09-25T13:29:30.553Z,15.61
2022-09-25T13:32:19.012Z,15.58
2022-09-25T13:34:46.682Z,15.62
2022-09-25T13:37:15.313Z,15.68
2022-09-25T13:40:05.659Z,15.75
2022-09-25T13:42:46.341Z,15.82
2022-09-25T13:45:21.472Z,15.71
2022-09-25T13:48:08.283Z,15.62
2022-09-25T13:50:37.851Z,15.69
2022-09-25T13:53:16.805Z,15.63
2022-09-25T13:55:46.954Z,15.49
2022-09-25T13:58:21.283Z,15.47
2022-09-25T14:00:53.233Z,15.47
2022-09-25T14:03:41.551Z,15.55
2022-09-25T14:06:24.108Z,15.47
2022-09-25T14:08:53.365Z,15.63
2022-09-25T14:11:26.865Z,15.50
2022-09-25T14:13:56.596Z,15.54
2022-09-25T14:16:33.346Z,15.66
2022-09-25T14:19:01.944Z,15.66
2022-09-25T14:21:30.628Z,15.54
2022-09-25T14:24:11.721Z,15.66
2022-09-25T14:26:44.534Z,15.77
2022-09-25T14:29:27.555Z,15.66
2022-09-25T14:32:53.526Z,15.58
2022-09-25T14:35:43.190Z,15.64
2022-09-25T14:38:36.857Z,15.30
2022-09-25T14:41:11.073Z,15.57
2022-09-25T14:43:49.665Z,15.49
2022-09-25T14:46:20.455Z,15.60
2022-09-25T14:48:51.238Z,15.47
2022-09-25T14:51:47.085Z,15.34
2022-09-25T14:54:18.390Z,15.36
2022-09-25T14:56:48.832Z,15.41
2022-09-25T14:59:37.827Z,15.35
2022-09-25T15:02:04.558Z,15.35
2022-09-25T15:04:33.459Z,15.27
2022-09-25T15:07:14.746Z,15.33
2022-09-25T15:09:47.661Z,15.27
2022-09-25T15:12:29.584Z,15.15
2022-09-25T15:15:16.423Z,15.20
2022-09-25T15:17:54.249Z,15.11
2022-09-25T15:20:23.326Z,15.15
2022-09-25T15:23:05.789Z,15.10
2022-09-25T15:25:39.391Z,15.02
2022-09-25T15:28:06.428Z,14.98
2022-09-25T15:30:35.876Z,14.94
2022-09-25T15:33:02.545Z,14.91
2022-09-25T15:35:30.515Z,14.68
2022-09-25T15:38:10.991Z,14.84
2022-09-25T15:40:37.792Z,14.88
2022-09-25T15:43:12.791Z,14.95
2022-09-25T15:45:48.134Z,14.87
2022-09-25T15:48:32.445Z,14.83
2022-09-25T15:51:04.837Z,14.82
2022-09-25T15:53:43.941Z,14.85
2022-09-25T15:56:17.682Z,14.81
2022-09-25T15:58:47.868Z,14.79
2022-09-25T16:01:36.973Z,14.89
2022-09-25T16:04:26.015Z,14.79
2022-09-25T16:06:52.622Z,14.76
2022-09-25T16:09:33.242Z,14.76
2022-09-25T16:12:26.224Z,14.62
2022-09-25T16:14:55.068Z,14.58
2022-09-25T16:17:32.823Z,14.67
2022-09-25T16:20:02.126Z,14.58
2022-09-25T16:22:32.917Z,14.59
2022-09-25T16:25:00.893Z,14.48
2022-09-25T16:27:32.511Z,14.35
2022-09-25T16:30:03.668Z,14.46
2022-09-25T16:32:31.114Z,14.40
2022-09-25T16:35:02.648Z,14.38
2022-09-25T16:37:34.791Z,14.29
2022-09-25T16:40:09.658Z,14.27
2022-09-25T16:42:42.298Z,14.18
2022-09-25T16:45:29.717Z,14.31
2022-09-25T16:48:00.019Z,14.09
2022-09-25T16:50:33.312Z,14.18
2022-09-25T16:53:03.537Z,14.10
2022-09-25T16:55:31.109Z,14.02
2022-09-25T16:57:58.556Z,13.97
2022-09-25T17:00:27.499Z,13.95
2022-09-25T17:02:54.856Z,14.02
2022-09-25T17:05:26.531Z,13.92
2022-09-25T17:07:55.955Z,13.90
2022-09-25T17:10:25.481Z,13.77
2022-09-25T17:12:54.387Z,13.84
2022-09-25T17:15:24.961Z,13.98
2022-09-25T17:17:55.953Z,13.89
2022-09-25T17:20:24.369Z,13.69
2022-09-25T17:22:54.641Z,13.80
2022-09-25T17:25:44.859Z,13.73
2022-09-25T17:28:12.303Z,13.67
2022-09-25T17:30:39.482Z,13.68
2022-09-25T17:33:06.622Z,13.62
2022-09-25T17:35:48.426Z,13.62
2022-09-25T17:38:14.838Z,13.66
2022-09-25T17:40:43.474Z,13.51
2022-09-25T17:43:11.635Z,13.55
2022-09-25T17:45:45.233Z,13.52
2022-09-25T17:48:11.989Z,13.54
2022-09-25T17:50:39.528Z,13.58
2022-09-25T17:53:18.134Z,13.54
2022-09-25T17:55:51.203Z,13.59
2022-09-25T17:58:19.725Z,13.48
2022-09-25T18:00:46.183Z,13.59
2022-09-25T18:03:13.186Z,13.60
2022-09-25T18:05:40.141Z,13.52
2022-09-25T18:08:06.620Z,13.36
2022-09-25T18:10:33.354Z,13.27
2022-09-25T18:13:00.153Z,13.28
2022-09-25T18:15:27.824Z,13.25
2022-09-25T18:17:54.516Z,13.22
2022-09-25T18:20:50.072Z,13.17
2022-09-25T18:23:16.457Z,13.15
2022-09-25T18:25:42.847Z,13.20
2022-09-25T18:28:09.683Z,13.12
2022-09-25T18:30:38.068Z,13.01
2022-09-25T18:33:04.888Z,12.79
2022-09-25T18:35:31.537Z,12.67
2022-09-25T18:37:59.661Z,12.57
2022-09-25T18:40:27.020Z,12.66
2022-09-25T18:42:54.212Z,12.62
2022-09-25T18:45:21.787Z,12.56
2022-09-25T18:47:48.381Z,12.55
2022-09-25T18:50:20.520Z,12.50
2022-09-25T18:52:47.710Z,12.52
2022-09-25T18:55:14.065Z,12.45
2022-09-25T18:57:40.853Z,12.32
2022-09-25T19:00:07.769Z,12.34
2022-09-25T19:02:38.752Z,12.28
2022-09-25T19:05:06.111Z,12.17
2022-09-25T19:07:32.667Z,12.09
2022-09-25T19:10:01.760Z,12.11
2022-09-25T19:12:28.165Z,12.01
2022-09-25T19:14:54.514Z,12.04
2022-09-25T19:17:20.984Z,12.11
2022-09-25T19:19:47.353Z,12.13
2022-09-25T19:22:17.763Z,12.23
2022-09-25T19:24:48.117Z,12.25
2022-09-25T19:27:16.251Z,12.18
2022-09-25T19:29:44.788Z,12.21
2022-09-25T19:32:14.275Z,12.30
2022-09-25T19:34:41.682Z,12.31
2022-09-25T19:37:09.176Z,12.31
2022-09-25T19:39:55.502Z,12.34
2022-09-25T19:42:23.359Z,12.38
2022-09-25T19:44:50.092Z,12.33
2022-09-25T19:47:16.764Z,12.37
2022-09-25T19:49:43.225Z,12.42
2022-09-25T19:52:09.720Z,12.31
2022-09-25T19:54:36.417Z,12.25
2022-09-25T19:57:02.865Z,12.23
2022-09-25T19:59:29.439Z,12.25
2022-09-25T20:01:55.999Z,12.23
2022-09-25T20:04:22.466Z,12.11
2022-09-25T20:06:48.925Z,12.13
2022-09-25T20:09:15.655Z,12.09
2022-09-25T20:11:42.359Z,12.13
2022-09-25T20:14:08.777Z,12.08
2022-09-25T20:16:37.279Z,12.05
2022-09-25T20:19:06.100Z,12.02
2022-09-25T20:21:37.576Z,12.06
2022-09-25T20:24:06.295Z,12.17
2022-09-25T20:26:33.148Z,12.18
2022-09-25T20:29:09.267Z,12.26
2022-09-25T20:31:37.188Z,12.23
2022-09-25T20:34:03.796Z,12.31
2022-09-25T20:36:30.151Z,12.15
2022-09-25T20:38:57.897Z,12.27
2022-09-25T20:41:25.897Z,12.32
2022-09-25T20:43:54.730Z,12.33
2022-09-25T20:46:21.939Z,12.36
2022-09-25T20:48:51.470Z,12.39
2022-09-25T20:51:20.922Z,12.45
2022-09-25T20:53:51.991Z,12.50
2022-09-25T20:56:18.763Z,12.48
2022-09-25T20:58:49.488Z,12.46
2022-09-25T21:01:22.721Z,12.40
2022-09-25T21:03:50.430Z,12.47
2022-09-25T21:06:19.877Z,12.42
2022-09-25T21:08:46.772Z,12.43
2022-09-25T21:11:13.536Z,12.46
2022-09-25T21:13:40.600Z,12.50
2022-09-25T21:16:11.031Z,12.46
2022-09-25T21:18:38.186Z,12.48
2022-09-25T21:21:07.273Z,12.34
2022-09-25T21:23:34.127Z,12.40
2022-09-25T21:26:10.322Z,12.28
2022-09-25T21:28:38.806Z,12.23
2022-09-25T21:31:08.175Z,12.24
2022-09-25T21:33:34.589Z,12.16
2022-09-25T21:36:01.258Z,12.01
2022-09-25T21:38:27.770Z,11.90
2022-09-25T21:41:02.428Z,12.01
2022-09-25T21:43:31.215Z,11.94
2022-09-25T21:46:02.618Z,11.95
2022-09-25T21:48:30.195Z,11.82
2022-09-25T21:50:58.627Z,11.78
2022-09-25T21:53:25.835Z,11.77
2022-09-25T21:56:02.378Z,11.70
2022-09-25T21:58:29.497Z,11.60
2022-09-25T22:01:08.246Z,11.59
2022-09-25T22:03:36.158Z,11.62
2022-09-25T22:06:04.855Z,11.53
2022-09-25T22:08:31.824Z,11.51
2022-09-25T22:10:59.861Z,11.56
2022-09-25T22:13:28.210Z,11.58
2022-09-25T22:16:10.018Z,11.74
2022-09-25T22:18:56.966Z,11.72
2022-09-25T22:21:26.887Z,11.76
2022-09-25T22:23:53.657Z,11.63
2022-09-25T22:26:20.609Z,11.76
2022-09-25T22:28:47.090Z,11.83
2022-09-25T22:31:15.600Z,11.80
2022-09-25T22:33:42.661Z,11.85
2022-09-25T22:36:10.915Z,11.79
2022-09-25T22:38:38.436Z,11.73
2022-09-25T22:41:10.285Z,11.81
2022-09-25T22:43:37.230Z,11.63
2022-09-25T22:46:04.791Z,11.71
2022-09-25T22:48:32.179Z,11.60
2022-09-25T22:51:04.994Z,11.56
2022-09-25T22:53:33.037Z,11.54
2022-09-25T22:56:23.507Z,11.50
2022-09-25T22:58:55.292Z,11.48
2022-09-25T23:01:28.465Z,11.37
2022-09-25T23:03:56.917Z,11.38
2022-09-25T23:06:24.159Z,11.27
2022-09-25T23:08:53.870Z,11.16
2022-09-25T23:11:21.968Z,11.20
2022-09-25T23:13:50.534Z,11.18
2022-09-25T23:16:18.194Z,11.08
2022-09-25T23:18:44.669Z,11.10
2022-09-25T23:21:11.010Z,10.93
2022-09-25T23:23:37.405Z,10.83
2022-09-25T23:26:06.408Z,10.69
2022-09-25T23:28:34.701Z,10.70
2022-09-25T23:31:08.330Z,10.64
2022-09-25T23:33:34.862Z,10.61
2022-09-25T23:36:06.600Z,10.61
2022-09-25T23:38:33.769Z,10.68
2022-09-25T23:41:00.543Z,10.59
2022-09-25T23:43:26.941Z,10.60
2022-09-25T23:45:53.359Z,10.60
2022-09-25T23:48:20.188Z,10.57
2022-09-25T23:50:46.585Z,10.46
2022-09-25T23:53:12.957Z,10.40
2022-09-25T23:55:42.575Z,10.34
2022-09-25T23:58:09.786Z,10.34
